createdAt,value
2023-02-17T00:01:27.919Z,12.15
2023-02-17T00:03:54.633Z,11.25
2023-02-17T00:06:22.520Z,12.90
2023-02-17T00:08:49.340Z,12.02
2023-02-17T00:11:15.996Z,12.13
2023-02-17T00:13:42.571Z,11.68
2023-02-17T00:16:15.417Z,11.85
2023-02-17T00:18:41.887Z,12.45
2023-02-17T00:21:28.255Z,12.35
2023-02-17T00:23:54.659Z,13.25
2023-02-17T00:26:21.472Z,12.57
2023-02-17T00:28:48.213Z,13.20
2023-02-17T00:31:15.887Z,12.68
2023-02-17T00:33:42.492Z,12.65
2023-02-17T00:36:11.326Z,13.02
2023-02-17T00:38:37.683Z,12.07
2023-02-17T00:41:04.194Z,11.52
2023-02-17T00:43:30.523Z,11.95
2023-02-17T00:45:59.736Z,11.50
2023-02-17T00:48:26.130Z,11.70
2023-02-17T00:50:52.490Z,11.15
2023-02-17T00:53:18.864Z,11.02
2023-02-17T00:55:45.218Z,10.65
2023-02-17T00:58:11.591Z,10.65
2023-02-17T01:00:37.976Z,10.23
2023-02-17T01:03:04.434Z,10.82
2023-02-17T01:05:30.943Z,9.25
2023-02-17T01:07:57.321Z,10.30
2023-02-17T01:10:23.772Z,10.32
2023-02-17T01:12:50.263Z,9.68
2023-02-17T01:15:16.780Z,10.88
2023-02-17T01:17:43.188Z,10.05
2023-02-17T01:20:09.760Z,9.80
2023-02-17T01:22:37.975Z,9.57
2023-02-17T01:25:04.546Z,10.15
2023-02-17T01:27:31.203Z,9.25
2023-02-17T01:29:57.702Z,9.52
2023-02-17T01:32:24.099Z,9.40
2023-02-17T01:34:50.496Z,8.40
2023-02-17T01:37:17.076Z,9.27
2023-02-17T01:39:43.421Z,9.48
2023-02-17T01:42:14.841Z,8.65
2023-02-17T01:44:59.629Z,10.32
2023-02-17T01:47:26.053Z,9.35
2023-02-17T01:49:52.371Z,9.45
2023-02-17T01:52:21.203Z,9.27
2023-02-17T01:54:50.237Z,8.80
2023-02-17T01:57:17.906Z,8.90
2023-02-17T01:59:44.743Z,9.35
2023-02-17T02:02:11.347Z,9.60
2023-02-17T02:04:39.332Z,8.85
2023-02-17T02:07:10.284Z,9.15
2023-02-17T02:09:38.555Z,8.70
2023-02-17T02:12:16.624Z,8.73
2023-02-17T02:14:43.003Z,8.68
2023-02-17T02:17:09.408Z,9.82
2023-02-17T02:20:03.572Z,8.80
2023-02-17T02:22:30.126Z,8.95
2023-02-17T02:25:05.832Z,9.27
2023-02-17T02:27:45.443Z,9.07
2023-02-17T02:30:20.963Z,8.88
2023-02-17T02:35:17.239Z,8.73
2023-02-17T02:38:05.445Z,9.10
2023-02-17T02:40:36.451Z,8.85
2023-02-17T02:43:03.885Z,9.00
2023-02-17T02:45:30.707Z,8.35
2023-02-17T02:47:58.046Z,8.18
2023-02-17T02:50:43.394Z,8.32
2023-02-17T02:53:12.732Z,8.15
2023-02-17T02:55:52.872Z,8.57
2023-02-17T02:58:19.148Z,8.55
2023-02-17T03:00:45.469Z,7.82
2023-02-17T03:03:11.791Z,8.02
2023-02-17T03:05:41.089Z,8.43
2023-02-17T03:08:20.450Z,8.13
2023-02-17T03:10:50.889Z,8.18
2023-02-17T03:13:18.243Z,8.55
2023-02-17T03:15:44.790Z,8.52
2023-02-17T03:18:11.158Z,8.43
2023-02-17T03:20:38.390Z,8.48
2023-02-17T03:23:05.565Z,7.93
2023-02-17T03:25:31.918Z,7.93
2023-02-17T03:27:58.397Z,8.40
2023-02-17T03:30:27.687Z,9.27
2023-02-17T03:32:54.177Z,8.52
2023-02-17T03:35:20.614Z,9.20
2023-02-17T03:37:46.984Z,9.25
2023-02-17T03:40:13.360Z,8.93
2023-02-17T03:42:39.738Z,9.30
2023-02-17T03:45:06.168Z,9.52
2023-02-17T03:47:32.554Z,8.90
2023-02-17T03:49:59.016Z,9.85
2023-02-17T03:52:25.378Z,9.57
2023-02-17T03:54:52.618Z,9.45
2023-02-17T03:57:19.429Z,10.25
2023-02-17T03:59:45.800Z,10.88
2023-02-17T04:02:12.145Z,11.57
2023-02-17T04:04:39.188Z,11.18
2023-02-17T04:07:05.628Z,10.82
2023-02-17T04:09:31.950Z,11.35
2023-02-17T04:11:58.317Z,11.13
2023-02-17T04:14:24.729Z,12.35
2023-02-17T04:16:57.092Z,12.18
2023-02-17T04:19:23.488Z,12.68
2023-02-17T04:21:49.803Z,12.25
2023-02-17T04:24:16.143Z,11.90
2023-02-17T04:26:42.582Z,11.82
2023-02-17T04:29:08.976Z,12.65
2023-02-17T04:31:35.363Z,11.15
2023-02-17T04:34:01.795Z,11.48
2023-02-17T04:36:28.235Z,11.52
2023-02-17T04:38:56.773Z,11.18
2023-02-17T04:41:23.176Z,10.85
2023-02-17T04:43:49.552Z,10.68
2023-02-17T04:46:15.968Z,11.13
2023-02-17T04:48:42.442Z,10.55
2023-02-17T04:51:08.860Z,11.18
2023-02-17T04:53:35.354Z,9.82
2023-02-17T04:56:01.905Z,10.73
2023-02-17T04:58:28.262Z,11.07
2023-02-17T05:00:54.673Z,12.07
2023-02-17T05:03:23.848Z,11.05
2023-02-17T05:05:50.214Z,11.98
2023-02-17T05:08:16.586Z,11.70
2023-02-17T05:10:42.942Z,11.52
2023-02-17T05:13:09.374Z,11.75
2023-02-17T05:15:35.878Z,11.40
2023-02-17T05:18:02.603Z,11.57
2023-02-17T05:20:29.066Z,11.82
2023-02-17T05:22:55.410Z,12.23
2023-02-17T05:25:21.939Z,12.52
2023-02-17T05:27:48.414Z,11.77
2023-02-17T05:30:14.916Z,11.18
2023-02-17T05:32:41.367Z,11.63
2023-02-17T05:35:07.933Z,11.38
2023-02-17T05:37:34.301Z,10.82
2023-02-17T05:40:00.657Z,10.65
2023-02-17T05:42:28.925Z,11.10
2023-02-17T05:44:55.954Z,10.52
2023-02-17T05:47:22.738Z,10.20
2023-02-17T05:49:49.162Z,9.73
2023-02-17T05:52:16.831Z,10.50
2023-02-17T05:54:43.179Z,9.82
2023-02-17T05:57:09.640Z,9.98
2023-02-17T05:59:35.962Z,9.20
2023-02-17T06:02:02.536Z,10.77
2023-02-17T06:04:28.934Z,9.63
2023-02-17T06:06:55.301Z,9.35
2023-02-17T06:09:21.728Z,9.32
2023-02-17T06:11:48.111Z,9.25
2023-02-17T06:14:14.439Z,8.73
2023-02-17T06:16:40.846Z,9.25
2023-02-17T06:19:07.203Z,9.65
2023-02-17T06:21:33.557Z,9.90
2023-02-17T06:23:59.859Z,10.13
2023-02-17T06:26:26.272Z,9.82
2023-02-17T06:28:53.896Z,10.07
2023-02-17T06:31:20.379Z,9.48
2023-02-17T06:33:47.003Z,9.98
2023-02-17T06:36:13.363Z,9.90
2023-02-17T06:38:39.696Z,9.43
2023-02-17T06:41:06.062Z,9.95
2023-02-17T06:43:34.777Z,9.45
2023-02-17T06:46:01.237Z,9.93
2023-02-17T06:48:27.802Z,10.65
2023-02-17T06:50:54.176Z,10.68
2023-02-17T06:53:20.544Z,10.02
2023-02-17T06:55:46.876Z,10.35
2023-02-17T06:58:13.207Z,10.35
2023-02-17T07:00:39.817Z,11.02
2023-02-17T07:03:06.217Z,11.13
2023-02-17T07:05:34.677Z,10.82
2023-02-17T07:08:01.099Z,10.95
2023-02-17T07:10:27.435Z,10.73
2023-02-17T07:12:53.922Z,12.30
2023-02-17T07:15:21.079Z,10.52
2023-02-17T07:17:47.589Z,11.48
2023-02-17T07:20:14.310Z,10.85
2023-02-17T07:22:40.703Z,11.05
2023-02-17T07:25:07.425Z,10.55
2023-02-17T07:27:35.420Z,11.02
2023-02-17T07:30:01.881Z,10.98
2023-02-17T07:32:28.245Z,10.35
2023-02-17T07:34:54.702Z,10.48
2023-02-17T07:37:21.889Z,10.60
2023-02-17T07:39:48.582Z,10.93
2023-02-17T07:42:15.194Z,10.15
2023-02-17T07:44:41.553Z,10.27
2023-02-17T07:47:08.256Z,9.85
2023-02-17T07:49:34.556Z,9.48
2023-02-17T07:52:01.307Z,9.75
2023-02-17T07:54:28.252Z,9.45
2023-02-17T07:56:54.638Z,8.85
2023-02-17T07:59:21.055Z,9.05
2023-02-17T08:01:47.522Z,8.65
2023-02-17T08:04:13.927Z,8.50
2023-02-17T08:06:40.313Z,8.38
2023-02-17T08:09:25.509Z,7.95
2023-02-17T08:12:10.522Z,7.77
2023-02-17T08:14:38.324Z,7.50
2023-02-17T08:17:04.978Z,7.88
2023-02-17T08:19:46.510Z,7.35
2023-02-17T08:22:13.666Z,6.95
2023-02-17T08:24:40.108Z,7.22
2023-02-17T08:27:06.425Z,6.93
2023-02-17T08:29:32.745Z,7.20
2023-02-17T08:31:59.246Z,6.97
2023-02-17T08:34:25.698Z,6.60
2023-02-17T08:36:52.056Z,6.50
2023-02-17T08:39:18.624Z,5.75
2023-02-17T08:41:45.647Z,5.47
2023-02-17T08:44:14.300Z,5.78
2023-02-17T08:46:41.438Z,6.28
2023-02-17T08:49:08.012Z,5.45
2023-02-17T08:51:34.988Z,5.38
2023-02-17T08:54:01.572Z,5.45
2023-02-17T08:56:28.296Z,5.38
2023-02-17T08:58:55.014Z,5.40
2023-02-17T09:01:21.913Z,5.53
2023-02-17T09:03:49.160Z,5.20
2023-02-17T09:06:15.937Z,5.18
2023-02-17T09:08:42.929Z,4.63
2023-02-17T09:11:09.790Z,4.85
2023-02-17T09:13:36.322Z,4.75
2023-02-17T09:16:02.890Z,5.10
2023-02-17T09:18:29.277Z,5.18
2023-02-17T09:20:55.738Z,5.00
2023-02-17T09:23:22.289Z,4.68
2023-02-17T09:25:48.672Z,4.43
2023-02-17T09:28:15.697Z,5.05
2023-02-17T09:30:42.618Z,4.63
2023-02-17T09:33:09.145Z,4.85
2023-02-17T09:35:36.525Z,4.72
2023-02-17T09:38:03.361Z,5.30
2023-02-17T09:40:39.655Z,5.13
2023-02-17T09:43:06.759Z,4.32
2023-02-17T09:45:35.221Z,4.80
2023-02-17T09:48:05.822Z,4.80
2023-02-17T09:50:43.766Z,4.88
2023-02-17T09:53:16.657Z,4.65
2023-02-17T09:55:46.597Z,4.70
2023-02-17T09:58:16.718Z,4.85
2023-02-17T10:00:45.221Z,5.30
2023-02-17T10:03:23.396Z,5.28
2023-02-17T10:05:53.524Z,4.60
2023-02-17T10:08:24.063Z,4.40
2023-02-17T10:10:57.269Z,4.45
2023-02-17T10:13:24.947Z,4.43
2023-02-17T10:15:52.839Z,4.30
2023-02-17T10:18:28.288Z,4.40
2023-02-17T10:21:05.229Z,4.80
2023-02-17T10:23:31.920Z,4.13
2023-02-17T10:26:07.401Z,4.43
2023-02-17T10:31:05.353Z,4.47
2023-02-17T10:33:35.030Z,4.30
2023-02-17T10:36:20.365Z,4.22
2023-02-17T10:38:46.664Z,4.43
2023-02-17T10:41:15.748Z,4.38
2023-02-17T10:43:43.110Z,4.10
2023-02-17T10:46:09.948Z,3.80
2023-02-17T10:48:43.034Z,4.75
2023-02-17T10:51:12.850Z,3.75
2023-02-17T10:53:40.268Z,3.70
2023-02-17T10:56:09.912Z,3.95
2023-02-17T10:58:45.040Z,4.20
2023-02-17T11:01:12.128Z,4.15
2023-02-17T11:03:40.996Z,3.75
2023-02-17T11:06:18.610Z,3.83
2023-02-17T11:08:58.551Z,4.05
2023-02-17T11:11:26.802Z,4.00
2023-02-17T11:13:56.488Z,4.22
2023-02-17T11:16:37.572Z,3.63
2023-02-17T11:19:04.783Z,3.85
2023-02-17T11:21:33.273Z,3.80
2023-02-17T11:24:02.029Z,4.30
2023-02-17T11:26:29.925Z,3.80
2023-02-17T11:29:07.235Z,4.03
2023-02-17T11:31:33.815Z,3.92
2023-02-17T11:34:10.374Z,3.60
2023-02-17T11:36:36.710Z,3.67
2023-02-17T11:39:14.033Z,3.60
2023-02-17T11:41:40.937Z,3.55
2023-02-17T11:44:09.032Z,4.10
2023-02-17T11:46:38.717Z,3.28
2023-02-17T11:49:17.125Z,3.42
2023-02-17T11:51:46.633Z,3.50
2023-02-17T11:54:18.366Z,3.75
2023-02-17T11:56:52.602Z,3.78
2023-02-17T11:59:37.927Z,3.58
2023-02-17T12:02:11.323Z,3.33
2023-02-17T12:04:58.035Z,3.83
2023-02-17T12:07:33.868Z,3.45
2023-02-17T12:10:18.927Z,3.88
2023-02-17T12:12:57.281Z,3.75
2023-02-17T12:15:23.696Z,3.55
2023-02-17T12:18:09.052Z,3.25
2023-02-17T12:20:38.567Z,3.33
2023-02-17T12:23:23.167Z,3.80
2023-02-17T12:25:59.544Z,3.80
2023-02-17T12:28:45.030Z,3.33
2023-02-17T12:31:30.035Z,3.17
2023-02-17T12:33:56.454Z,3.55
2023-02-17T12:36:25.540Z,3.15
2023-02-17T12:38:57.169Z,3.05
2023-02-17T12:41:30.185Z,2.92
2023-02-17T12:43:58.655Z,2.90
2023-02-17T12:46:34.285Z,2.90
2023-02-17T12:51:49.060Z,3.10
2023-02-17T12:54:15.395Z,2.50
2023-02-17T12:56:48.685Z,2.35
2023-02-17T12:59:17.036Z,2.30
2023-02-17T13:01:52.787Z,2.15
2023-02-17T13:04:20.149Z,2.20
2023-02-17T13:06:51.443Z,1.92
2023-02-17T13:09:23.882Z,1.90
2023-02-17T13:11:50.549Z,1.60
2023-02-17T13:14:38.536Z,1.75
2023-02-17T13:17:04.836Z,1.70
2023-02-17T13:19:32.377Z,1.60
2023-02-17T13:22:05.694Z,1.83
2023-02-17T13:24:32.117Z,1.60
2023-02-17T13:27:09.640Z,1.73
2023-02-17T13:29:36.657Z,1.60
2023-02-17T13:32:05.566Z,1.75
2023-02-17T13:34:32.271Z,1.80
2023-02-17T13:37:01.703Z,1.77
2023-02-17T13:39:33.722Z,1.75
2023-02-17T13:42:00.797Z,1.92
2023-02-17T13:44:31.179Z,1.50
2023-02-17T13:47:12.276Z,1.70
2023-02-17T13:49:38.611Z,1.70
2023-02-17T13:52:31.610Z,1.95
2023-02-17T13:54:59.252Z,1.77
2023-02-17T13:57:25.774Z,1.85
2023-02-17T13:59:52.153Z,1.80
2023-02-17T14:02:35.154Z,1.77
2023-02-17T14:05:10.240Z,1.85
2023-02-17T14:07:36.875Z,1.70
2023-02-17T14:10:03.434Z,1.52
2023-02-17T14:12:29.852Z,2.10
2023-02-17T14:14:56.201Z,1.90
2023-02-17T14:17:32.456Z,1.73
2023-02-17T14:20:01.046Z,1.75
2023-02-17T14:22:30.933Z,2.05
2023-02-17T14:25:07.606Z,1.73
2023-02-17T14:27:47.843Z,1.88
2023-02-17T14:30:33.167Z,2.17
2023-02-17T14:33:08.786Z,2.00
2023-02-17T14:35:35.496Z,2.05
2023-02-17T14:38:09.429Z,1.88
2023-02-17T14:40:36.796Z,1.90
2023-02-17T14:43:04.369Z,1.98
2023-02-17T14:45:30.812Z,1.90
2023-02-17T14:47:57.732Z,1.95
2023-02-17T14:50:24.250Z,2.00
2023-02-17T14:52:53.522Z,2.00
2023-02-17T14:55:29.343Z,1.92
2023-02-17T14:57:55.791Z,1.90
2023-02-17T15:00:22.236Z,1.83
2023-02-17T15:02:49.152Z,2.10
2023-02-17T15:05:15.625Z,1.90
2023-02-17T15:07:42.281Z,2.13
2023-02-17T15:10:25.015Z,1.88
2023-02-17T15:12:51.715Z,2.20
2023-02-17T15:15:20.620Z,1.98
2023-02-17T15:17:47.098Z,1.90
2023-02-17T15:20:14.378Z,1.90
2023-02-17T15:22:44.356Z,2.08
2023-02-17T15:25:24.112Z,2.20
2023-02-17T15:27:50.863Z,2.08
2023-02-17T15:30:18.619Z,2.30
2023-02-17T15:32:45.813Z,2.30
2023-02-17T15:35:22.627Z,2.03
2023-02-17T15:37:49.716Z,2.08
2023-02-17T15:40:17.666Z,1.60
2023-02-17T15:42:44.926Z,1.80
2023-02-17T15:45:13.569Z,2.13
2023-02-17T15:47:40.259Z,1.90
2023-02-17T15:50:12.091Z,2.05
2023-02-17T15:52:38.506Z,1.90
2023-02-17T15:55:05.073Z,1.85
2023-02-17T15:57:31.595Z,2.08
2023-02-17T15:59:57.916Z,1.90
2023-02-17T16:02:25.183Z,2.00
2023-02-17T16:04:51.608Z,1.83
2023-02-17T16:07:17.988Z,2.25
2023-02-17T16:09:44.416Z,2.08
2023-02-17T16:12:27.077Z,1.90
2023-02-17T16:14:54.240Z,1.70
2023-02-17T16:17:20.990Z,2.25
2023-02-17T16:19:47.565Z,1.92
2023-02-17T16:22:14.335Z,1.92
2023-02-17T16:24:40.832Z,2.00
2023-02-17T16:27:10.632Z,1.98
2023-02-17T16:29:37.289Z,1.80
2023-02-17T16:32:03.931Z,1.80
2023-02-17T16:34:34.745Z,1.70
2023-02-17T16:37:02.608Z,1.60
2023-02-17T16:39:29.080Z,1.75
2023-02-17T16:41:55.576Z,1.65
2023-02-17T16:44:22.542Z,1.52
2023-02-17T16:46:50.513Z,1.70
2023-02-17T16:49:22.937Z,1.67
2023-02-17T16:51:50.897Z,1.63
2023-02-17T16:54:17.682Z,1.65
2023-02-17T16:56:48.353Z,1.65
2023-02-17T16:59:16.360Z,1.60
2023-02-17T17:01:43.237Z,1.98
2023-02-17T17:04:09.723Z,1.65
2023-02-17T17:06:37.034Z,1.63
2023-02-17T17:09:04.392Z,1.40
2023-02-17T17:11:31.153Z,1.60
2023-02-17T17:13:57.620Z,1.60
2023-02-17T17:16:29.877Z,1.63
2023-02-17T17:18:56.426Z,1.80
2023-02-17T17:21:27.031Z,1.50
2023-02-17T17:23:53.575Z,1.60
2023-02-17T17:26:31.929Z,1.75
2023-02-17T17:28:58.827Z,1.58
2023-02-17T17:31:25.544Z,1.70
2023-02-17T17:33:52.364Z,1.70
2023-02-17T17:36:22.039Z,1.90
2023-02-17T17:38:48.444Z,2.10
2023-02-17T17:41:15.090Z,2.00
2023-02-17T17:43:41.988Z,2.55
2023-02-17T17:46:14.096Z,1.90
2023-02-17T17:48:40.706Z,2.22
2023-02-17T17:51:07.567Z,2.15
2023-02-17T17:53:34.080Z,2.20
2023-02-17T17:56:00.540Z,2.20
2023-02-17T17:58:26.978Z,2.15
2023-02-17T18:00:54.552Z,1.80
2023-02-17T18:03:21.025Z,2.30
2023-02-17T18:05:47.695Z,2.03
2023-02-17T18:08:14.389Z,1.92
2023-02-17T18:10:41.922Z,1.98
2023-02-17T18:13:10.013Z,2.22
2023-02-17T18:15:36.543Z,2.20
2023-02-17T18:18:03.412Z,2.00
2023-02-17T18:20:29.869Z,1.77
2023-02-17T18:22:56.228Z,2.05
2023-02-17T18:25:22.950Z,1.75
2023-02-17T18:27:49.773Z,2.10
2023-02-17T18:30:17.863Z,2.30
2023-02-17T18:32:45.150Z,2.60
2023-02-17T18:35:12.715Z,2.60
2023-02-17T18:37:40.907Z,2.58
2023-02-17T18:40:08.316Z,2.95
2023-02-17T18:42:34.729Z,2.97
2023-02-17T18:45:01.364Z,2.83
2023-02-17T18:47:27.805Z,2.67
2023-02-17T18:49:54.198Z,2.70
2023-02-17T18:52:20.605Z,2.80
2023-02-17T18:54:46.995Z,2.83
2023-02-17T18:57:16.744Z,2.60
2023-02-17T18:59:43.423Z,3.33
2023-02-17T19:02:11.386Z,2.95
2023-02-17T19:04:38.114Z,3.03
2023-02-17T19:07:06.848Z,3.22
2023-02-17T19:09:33.981Z,3.35
2023-02-17T19:12:00.348Z,3.50
2023-02-17T19:14:26.874Z,3.53
2023-02-17T19:16:53.245Z,3.65
2023-02-17T19:19:19.590Z,3.40
2023-02-17T19:21:46.060Z,3.33
2023-02-17T19:24:14.477Z,3.90
2023-02-17T19:26:40.950Z,4.13
2023-02-17T19:29:07.355Z,4.15
2023-02-17T19:31:33.871Z,4.68
2023-02-17T19:34:00.271Z,4.63
2023-02-17T19:36:26.737Z,3.60
2023-02-17T19:38:55.408Z,2.83
2023-02-17T19:41:21.871Z,2.80
2023-02-17T19:43:48.292Z,2.50
2023-02-17T19:46:15.394Z,2.47
2023-02-17T19:48:41.992Z,2.20
2023-02-17T19:51:09.057Z,3.03
2023-02-17T19:53:35.977Z,2.33
2023-02-17T19:56:15.971Z,3.20
2023-02-17T19:58:43.041Z,3.45
2023-02-17T20:01:11.434Z,3.45
2023-02-17T20:03:37.992Z,4.00
2023-02-17T20:06:05.896Z,4.43
2023-02-17T20:08:32.640Z,4.07
2023-02-17T20:10:59.109Z,4.22
2023-02-17T20:13:27.165Z,4.88
2023-02-17T20:15:59.069Z,4.35
2023-02-17T20:18:25.465Z,5.03
2023-02-17T20:20:53.265Z,4.97
2023-02-17T20:23:19.641Z,5.28
2023-02-17T20:25:46.018Z,5.57
2023-02-17T20:28:12.731Z,5.70
2023-02-17T20:30:39.305Z,6.20
2023-02-17T20:33:05.884Z,6.10
2023-02-17T20:35:35.353Z,6.55
2023-02-17T20:38:01.763Z,6.30
2023-02-17T20:40:28.355Z,6.25
2023-02-17T20:42:55.125Z,6.72
2023-02-17T20:45:21.555Z,6.35
2023-02-17T20:47:47.913Z,6.95
2023-02-17T20:50:15.530Z,6.90
2023-02-17T20:52:41.873Z,6.28
2023-02-17T20:55:08.606Z,6.30
2023-02-17T20:57:35.075Z,6.78
2023-02-17T21:00:01.501Z,6.28
2023-02-17T21:02:27.913Z,5.82
2023-02-17T21:04:54.254Z,6.38
2023-02-17T21:07:20.590Z,5.90
2023-02-17T21:09:46.973Z,5.57
2023-02-17T21:12:13.316Z,5.65
2023-02-17T21:14:39.915Z,5.38
2023-02-17T21:17:06.430Z,5.20
2023-02-17T21:19:32.938Z,4.75
2023-02-17T21:21:59.349Z,4.93
2023-02-17T21:24:25.736Z,4.18
2023-02-17T21:26:52.053Z,4.43
2023-02-17T21:29:18.452Z,3.88
2023-02-17T21:31:44.895Z,4.00
2023-02-17T21:34:11.285Z,3.72
2023-02-17T21:36:37.611Z,3.63
2023-02-17T21:39:04.675Z,3.33
2023-02-17T21:41:32.462Z,3.03
2023-02-17T21:44:18.003Z,3.22
2023-02-17T21:46:45.238Z,3.30
2023-02-17T21:49:12.217Z,3.00
2023-02-17T21:51:39.032Z,2.80
2023-02-17T21:54:05.921Z,3.20
2023-02-17T21:56:32.591Z,2.53
2023-02-17T21:58:58.897Z,2.65
2023-02-17T22:01:26.696Z,2.67
2023-02-17T22:03:53.050Z,2.63
2023-02-17T22:06:24.258Z,2.30
2023-02-17T22:08:51.043Z,2.55
2023-02-17T22:11:19.032Z,2.70
2023-02-17T22:13:45.623Z,2.50
2023-02-17T22:16:12.160Z,2.42
2023-02-17T22:18:38.724Z,2.70
2023-02-17T22:21:09.501Z,2.50
2023-02-17T22:23:36.200Z,2.40
2023-02-17T22:26:06.688Z,2.92
2023-02-17T22:28:33.239Z,2.65
2023-02-17T22:30:59.653Z,2.92
2023-02-17T22:33:26.054Z,3.38
2023-02-17T22:35:59.800Z,3.30
2023-02-17T22:38:26.218Z,3.15
2023-02-17T22:40:52.537Z,2.80
2023-02-17T22:43:18.987Z,3.40
2023-02-17T22:45:45.387Z,3.33
2023-02-17T22:48:11.823Z,3.20
2023-02-17T22:50:38.776Z,2.90
2023-02-17T22:53:05.083Z,3.33
2023-02-17T22:55:31.469Z,3.17
2023-02-17T22:57:57.823Z,3.33
2023-02-17T23:00:24.124Z,3.30
2023-02-17T23:02:50.517Z,3.15
2023-02-17T23:05:16.907Z,2.80
2023-02-17T23:07:43.206Z,2.97
2023-02-17T23:10:09.752Z,3.30
2023-02-17T23:12:36.549Z,3.20
2023-02-17T23:15:02.936Z,3.38
2023-02-17T23:17:49.515Z,3.40
2023-02-17T23:20:15.918Z,4.18
2023-02-17T23:22:42.223Z,4.43
2023-02-17T23:25:08.698Z,5.07
2023-02-17T23:27:36.220Z,6.07
2023-02-17T23:30:02.983Z,6.63
2023-02-17T23:32:29.488Z,6.30
2023-02-17T23:34:55.914Z,6.20
2023-02-17T23:37:22.470Z,6.38
2023-02-17T23:39:48.879Z,6.80
2023-02-17T23:42:15.405Z,6.78
2023-02-17T23:44:41.794Z,6.10
2023-02-17T23:47:08.356Z,5.75
2023-02-17T23:49:34.714Z,6.13
2023-02-17T23:52:01.069Z,6.32
2023-02-17T23:54:27.591Z,6.90
2023-02-17T23:56:54.115Z,6.70
2023-02-17T23:59:20.434Z,6.93
